sensor_id;sensor_type;location;lat;lon;timestamp;pressure;altitude;pressure_sealevel;temperature;humidity
41862;BME280;27537;57.134;-2.136;2023-07-24T00:00:52;100247.94;;;13.64;100.00
41862;BME280;27537;57.134;-2.136;2023-07-24T00:03:18;100243.25;;;13.69;100.00
41862;BME280;27537;57.134;-2.136;2023-07-24T00:05:45;100250.19;;;13.70;100.00
41862;BME280;27537;57.134;-2.136;2023-07-24T00:08:12;100235.59;;;13.64;100.00
41862;BME280;27537;57.134;-2.136;2023-07-24T00:10:39;100249.25;;;13.71;100.00
41862;BME280;27537;57.134;-2.136;2023-07-24T00:13:05;100242.91;;;13.59;100.00
41862;BME280;27537;57.134;-2.136;2023-07-24T00:15:32;100228.00;;;13.60;100.00
41862;BME280;27537;57.134;-2.136;2023-07-24T00:17:58;100242.00;;;13.60;100.00
41862;BME280;27537;57.134;-2.136;2023-07-24T00:20:25;100241.25;;;13.58;100.00
41862;BME280;27537;57.134;-2.136;2023-07-24T00:22:52;100236.31;;;13.52;100.00
41862;BME280;27537;57.134;-2.136;2023-07-24T00:25:19;100236.94;;;13.41;100.00
41862;BME280;27537;57.134;-2.136;2023-07-24T00:27:45;100237.59;;;13.29;100.00
41862;BME280;27537;57.134;-2.136;2023-07-24T00:30:12;100237.47;;;13.32;100.00
41862;BME280;27537;57.134;-2.136;2023-07-24T00:32:39;100245.50;;;13.45;100.00
41862;BME280;27537;57.134;-2.136;2023-07-24T00:35:06;100225.03;;;13.50;100.00
41862;BME280;27537;57.134;-2.136;2023-07-24T00:37:33;100237.50;;;13.62;100.00
41862;BME280;27537;57.134;-2.136;2023-07-24T00:40:00;100234.97;;;13.29;100.00
41862;BME280;27537;57.134;-2.136;2023-07-24T00:42:26;100229.38;;;13.51;100.00
41862;BME280;27537;57.134;-2.136;2023-07-24T00:44:53;100224.38;;;13.30;100.00
41862;BME280;27537;57.134;-2.136;2023-07-24T00:47:20;100223.28;;;13.35;100.00
41862;BME280;27537;57.134;-2.136;2023-07-24T00:49:48;100237.31;;;13.19;100.00
41862;BME280;27537;57.134;-2.136;2023-07-24T00:52:15;100227.09;;;13.29;100.00
41862;BME280;27537;57.134;-2.136;2023-07-24T00:54:43;100235.75;;;13.15;100.00
41862;BME280;27537;57.134;-2.136;2023-07-24T00:57:10;100231.94;;;13.37;100.00
41862;BME280;27537;57.134;-2.136;2023-07-24T00:59:37;100235.25;;;13.24;100.00
41862;BME280;27537;57.134;-2.136;2023-07-24T01:02:04;100237.41;;;13.34;100.00
41862;BME280;27537;57.134;-2.136;2023-07-24T01:04:30;100226.50;;;13.24;100.00
41862;BME280;27537;57.134;-2.136;2023-07-24T01:06:58;100223.66;;;12.97;100.00
41862;BME280;27537;57.134;-2.136;2023-07-24T01:09:24;100227.56;;;13.05;100.00
41862;BME280;27537;57.134;-2.136;2023-07-24T01:12:57;100223.06;;;13.07;100.00
41862;BME280;27537;57.134;-2.136;2023-07-24T01:15:13;100225.09;;;13.02;100.00
41862;BME280;27537;57.134;-2.136;2023-07-24T01:17:47;100225.19;;;12.85;100.00
41862;BME280;27537;57.134;-2.136;2023-07-24T01:20:17;100219.41;;;12.78;100.00
41862;BME280;27537;57.134;-2.136;2023-07-24T01:25:45;100217.28;;;12.69;100.00
41862;BME280;27537;57.134;-2.136;2023-07-24T01:28:12;100218.47;;;12.79;100.00
41862;BME280;27537;57.134;-2.136;2023-07-24T01:30:39;100223.50;;;12.68;100.00
41862;BME280;27537;57.134;-2.136;2023-07-24T01:33:06;100212.03;;;12.69;100.00
41862;BME280;27537;57.134;-2.136;2023-07-24T01:35:33;100217.88;;;12.58;100.00
41862;BME280;27537;57.134;-2.136;2023-07-24T01:38:00;100222.31;;;12.73;100.00
41862;BME280;27537;57.134;-2.136;2023-07-24T01:40:27;100213.81;;;12.84;100.00
41862;BME280;27537;57.134;-2.136;2023-07-24T01:42:53;100212.56;;;12.76;100.00
41862;BME280;27537;57.134;-2.136;2023-07-24T01:45:20;100219.59;;;12.75;100.00
41862;BME280;27537;57.134;-2.136;2023-07-24T01:47:47;100215.59;;;12.68;100.00
41862;BME280;27537;57.134;-2.136;2023-07-24T01:50:14;100207.97;;;12.63;100.00
41862;BME280;27537;57.134;-2.136;2023-07-24T01:52:40;100205.56;;;12.43;100.00
41862;BME280;27537;57.134;-2.136;2023-07-24T01:55:07;100208.38;;;12.40;100.00
41862;BME280;27537;57.134;-2.136;2023-07-24T01:57:35;100201.50;;;12.37;100.00
41862;BME280;27537;57.134;-2.136;2023-07-24T02:00:02;100200.16;;;12.46;100.00
41862;BME280;27537;57.134;-2.136;2023-07-24T02:02:29;100192.81;;;12.52;100.00
41862;BME280;27537;57.134;-2.136;2023-07-24T02:04:55;100196.63;;;12.47;100.00
41862;BME280;27537;57.134;-2.136;2023-07-24T02:07:22;100192.19;;;12.31;100.00
41862;BME280;27537;57.134;-2.136;2023-07-24T02:09:49;100190.06;;;12.22;100.00
41862;BME280;27537;57.134;-2.136;2023-07-24T02:12:16;100195.56;;;12.33;100.00
41862;BME280;27537;57.134;-2.136;2023-07-24T02:14:43;100185.03;;;12.18;100.00
41862;BME280;27537;57.134;-2.136;2023-07-24T02:17:09;100158.53;;;12.06;100.00
41862;BME280;27537;57.134;-2.136;2023-07-24T02:19:36;100192.38;;;12.11;100.00
41862;BME280;27537;57.134;-2.136;2023-07-24T02:22:03;100172.47;;;12.07;100.00
41862;BME280;27537;57.134;-2.136;2023-07-24T02:24:30;100189.06;;;12.07;100.00
41862;BME280;27537;57.134;-2.136;2023-07-24T02:26:57;100188.84;;;12.12;100.00
41862;BME280;27537;57.134;-2.136;2023-07-24T02:29:23;100177.91;;;12.20;100.00
41862;BME280;27537;57.134;-2.136;2023-07-24T02:31:50;100188.94;;;12.26;100.00
41862;BME280;27537;57.134;-2.136;2023-07-24T02:34:17;100187.09;;;12.28;100.00
41862;BME280;27537;57.134;-2.136;2023-07-24T02:36:44;100193.56;;;12.05;100.00
41862;BME280;27537;57.134;-2.136;2023-07-24T02:39:10;100185.53;;;12.08;100.00
41862;BME280;27537;57.134;-2.136;2023-07-24T02:41:37;100177.16;;;12.18;100.00
41862;BME280;27537;57.134;-2.136;2023-07-24T02:44:04;100187.53;;;12.03;100.00
41862;BME280;27537;57.134;-2.136;2023-07-24T02:46:30;100189.53;;;12.15;100.00
41862;BME280;27537;57.134;-2.136;2023-07-24T02:48:58;100179.66;;;12.03;100.00
41862;BME280;27537;57.134;-2.136;2023-07-24T02:51:25;100183.69;;;11.75;100.00
41862;BME280;27537;57.134;-2.136;2023-07-24T02:53:54;100178.81;;;11.85;100.00
41862;BME280;27537;57.134;-2.136;2023-07-24T02:56:21;100178.44;;;11.75;100.00
41862;BME280;27537;57.134;-2.136;2023-07-24T02:58:48;100184.91;;;11.86;100.00
41862;BME280;27537;57.134;-2.136;2023-07-24T03:01:15;100179.47;;;11.73;100.00
41862;BME280;27537;57.134;-2.136;2023-07-24T03:03:41;100165.72;;;11.68;100.00
41862;BME280;27537;57.134;-2.136;2023-07-24T03:06:08;100156.34;;;11.46;100.00
41862;BME280;27537;57.134;-2.136;2023-07-24T03:08:35;100170.81;;;11.71;100.00
41862;BME280;27537;57.134;-2.136;2023-07-24T03:11:04;100148.53;;;11.45;100.00
41862;BME280;27537;57.134;-2.136;2023-07-24T03:13:31;100167.44;;;11.51;100.00
41862;BME280;27537;57.134;-2.136;2023-07-24T03:15:58;100173.03;;;11.78;100.00
41862;BME280;27537;57.134;-2.136;2023-07-24T03:18:25;100160.75;;;11.79;100.00
41862;BME280;27537;57.134;-2.136;2023-07-24T03:20:52;100166.19;;;11.76;100.00
41862;BME280;27537;57.134;-2.136;2023-07-24T03:23:18;100182.69;;;11.78;100.00
41862;BME280;27537;57.134;-2.136;2023-07-24T03:25:46;100177.59;;;11.92;100.00
41862;BME280;27537;57.134;-2.136;2023-07-24T03:28:13;100170.81;;;11.88;100.00
41862;BME280;27537;57.134;-2.136;2023-07-24T03:30:40;100177.50;;;12.11;100.00
41862;BME280;27537;57.134;-2.136;2023-07-24T03:33:06;100188.91;;;12.10;100.00
41862;BME280;27537;57.134;-2.136;2023-07-24T03:35:33;100184.75;;;12.06;100.00
41862;BME280;27537;57.134;-2.136;2023-07-24T03:38:00;100184.75;;;12.06;100.00
41862;BME280;27537;57.134;-2.136;2023-07-24T03:40:27;100192.34;;;12.28;100.00
41862;BME280;27537;57.134;-2.136;2023-07-24T03:42:53;100192.19;;;12.31;100.00
41862;BME280;27537;57.134;-2.136;2023-07-24T03:45:20;100192.22;;;12.14;100.00
41862;BME280;27537;57.134;-2.136;2023-07-24T03:47:47;100190.63;;;12.11;100.00
41862;BME280;27537;57.134;-2.136;2023-07-24T03:50:14;100188.22;;;12.07;100.00
41862;BME280;27537;57.134;-2.136;2023-07-24T03:52:40;100186.16;;;11.96;100.00
41862;BME280;27537;57.134;-2.136;2023-07-24T03:55:07;100187.25;;;11.92;100.00
41862;BME280;27537;57.134;-2.136;2023-07-24T03:57:34;100195.09;;;12.09;100.00
41862;BME280;27537;57.134;-2.136;2023-07-24T04:00:02;100178.56;;;12.07;100.00
41862;BME280;27537;57.134;-2.136;2023-07-24T04:02:28;100180.19;;;12.10;100.00
41862;BME280;27537;57.134;-2.136;2023-07-24T04:04:55;100175.09;;;12.07;100.00
41862;BME280;27537;57.134;-2.136;2023-07-24T04:07:22;100186.09;;;12.31;100.00
41862;BME280;27537;57.134;-2.136;2023-07-24T04:09:48;100196.06;;;12.24;100.00
41862;BME280;27537;57.134;-2.136;2023-07-24T04:12:15;100198.88;;;12.37;100.00
41862;BME280;27537;57.134;-2.136;2023-07-24T04:14:42;100188.88;;;12.28;100.00
41862;BME280;27537;57.134;-2.136;2023-07-24T04:17:08;100196.25;;;12.37;100.00
41862;BME280;27537;57.134;-2.136;2023-07-24T04:19:35;100144.38;;;12.09;100.00
41862;BME280;27537;57.134;-2.136;2023-07-24T04:22:02;100188.06;;;12.10;100.00
41862;BME280;27537;57.134;-2.136;2023-07-24T04:24:29;100180.63;;;12.18;100.00
41862;BME280;27537;57.134;-2.136;2023-07-24T04:26:55;100183.84;;;12.23;100.00
41862;BME280;27537;57.134;-2.136;2023-07-24T04:29:22;100195.97;;;12.26;100.00
41862;BME280;27537;57.134;-2.136;2023-07-24T04:31:51;100199.91;;;12.34;100.00
41862;BME280;27537;57.134;-2.136;2023-07-24T04:34:17;100202.00;;;12.28;100.00
41862;BME280;27537;57.134;-2.136;2023-07-24T04:36:44;100183.28;;;12.34;100.00
41862;BME280;27537;57.134;-2.136;2023-07-24T04:39:11;100199.84;;;12.68;100.00
41862;BME280;27537;57.134;-2.136;2023-07-24T04:41:37;100205.16;;;12.50;100.00
41862;BME280;27537;57.134;-2.136;2023-07-24T04:44:04;100199.72;;;12.38;100.00
41862;BME280;27537;57.134;-2.136;2023-07-24T04:46:30;100201.50;;;12.53;100.00
41862;BME280;27537;57.134;-2.136;2023-07-24T04:48:58;100204.38;;;12.32;100.00
41862;BME280;27537;57.134;-2.136;2023-07-24T04:51:24;100207.00;;;12.32;100.00
41862;BME280;27537;57.134;-2.136;2023-07-24T04:53:51;100208.41;;;12.56;100.00
41862;BME280;27537;57.134;-2.136;2023-07-24T04:56:18;100198.72;;;12.56;100.00
41862;BME280;27537;57.134;-2.136;2023-07-24T04:58:44;100211.34;;;12.65;100.00
41862;BME280;27537;57.134;-2.136;2023-07-24T05:01:11;100211.09;;;12.54;100.00
41862;BME280;27537;57.134;-2.136;2023-07-24T05:03:37;100209.97;;;12.42;100.00
41862;BME280;27537;57.134;-2.136;2023-07-24T05:06:04;100182.41;;;12.18;100.00
41862;BME280;27537;57.134;-2.136;2023-07-24T05:08:31;100209.41;;;12.53;100.00
41862;BME280;27537;57.134;-2.136;2023-07-24T05:10:58;100212.28;;;12.48;100.00
41862;BME280;27537;57.134;-2.136;2023-07-24T05:13:26;100202.00;;;12.28;100.00
41862;BME280;27537;57.134;-2.136;2023-07-24T05:15:53;100200.81;;;12.33;100.00
41862;BME280;27537;57.134;-2.136;2023-07-24T05:18:19;100189.63;;;12.30;100.00
41862;BME280;27537;57.134;-2.136;2023-07-24T05:20:47;100206.00;;;12.51;100.00
41862;BME280;27537;57.134;-2.136;2023-07-24T05:23:14;100196.53;;;12.48;100.00
41862;BME280;27537;57.134;-2.136;2023-07-24T05:25:42;100207.03;;;12.48;100.00
41862;BME280;27537;57.134;-2.136;2023-07-24T05:28:09;100204.88;;;12.39;100.00
41862;BME280;27537;57.134;-2.136;2023-07-24T05:30:36;100207.31;;;12.26;100.00
41862;BME280;27537;57.134;-2.136;2023-07-24T05:33:03;100159.06;;;12.13;100.00
41862;BME280;27537;57.134;-2.136;2023-07-24T05:35:30;100216.94;;;12.43;100.00
41862;BME280;27537;57.134;-2.136;2023-07-24T05:37:56;100212.19;;;12.50;100.00
41862;BME280;27537;57.134;-2.136;2023-07-24T05:40:23;100217.34;;;12.51;100.00
41862;BME280;27537;57.134;-2.136;2023-07-24T05:42:50;100222.13;;;12.61;100.00
41862;BME280;27537;57.134;-2.136;2023-07-24T05:45:16;100216.69;;;12.64;100.00
41862;BME280;27537;57.134;-2.136;2023-07-24T05:47:43;100217.44;;;12.50;100.00
41862;BME280;27537;57.134;-2.136;2023-07-24T05:50:10;100218.56;;;12.62;100.00
41862;BME280;27537;57.134;-2.136;2023-07-24T05:52:39;100209.56;;;12.50;100.00
41862;BME280;27537;57.134;-2.136;2023-07-24T05:55:07;100181.53;;;12.34;100.00
41862;BME280;27537;57.134;-2.136;2023-07-24T05:57:35;100211.28;;;12.67;100.00
41862;BME280;27537;57.134;-2.136;2023-07-24T06:00:05;100206.25;;;12.62;100.00
41862;BME280;27537;57.134;-2.136;2023-07-24T06:02:32;100211.88;;;12.56;100.00
41862;BME280;27537;57.134;-2.136;2023-07-24T06:04:58;100209.00;;;12.61;100.00
41862;BME280;27537;57.134;-2.136;2023-07-24T06:07:25;100198.31;;;12.64;100.00
41862;BME280;27537;57.134;-2.136;2023-07-24T06:09:52;100195.88;;;12.77;100.00
41862;BME280;27537;57.134;-2.136;2023-07-24T06:12:18;100202.63;;;12.65;100.00
41862;BME280;27537;57.134;-2.136;2023-07-24T06:14:45;100196.78;;;12.76;100.00
41862;BME280;27537;57.134;-2.136;2023-07-24T06:17:12;100201.44;;;12.70;100.00
41862;BME280;27537;57.134;-2.136;2023-07-24T06:19:38;100196.63;;;12.79;100.00
41862;BME280;27537;57.134;-2.136;2023-07-24T06:22:05;100199.50;;;12.90;100.00
41862;BME280;27537;57.134;-2.136;2023-07-24T06:24:32;100193.41;;;12.73;100.00
41862;BME280;27537;57.134;-2.136;2023-07-24T06:26:58;100191.53;;;12.76;100.00
41862;BME280;27537;57.134;-2.136;2023-07-24T06:29:25;100201.13;;;12.61;100.00
41862;BME280;27537;57.134;-2.136;2023-07-24T06:31:52;100187.47;;;12.86;100.00
41862;BME280;27537;57.134;-2.136;2023-07-24T06:34:19;100198.31;;;12.96;100.00
41862;BME280;27537;57.134;-2.136;2023-07-24T06:36:45;100191.09;;;12.99;100.00
41862;BME280;27537;57.134;-2.136;2023-07-24T06:39:12;100203.63;;;12.94;100.00
41862;BME280;27537;57.134;-2.136;2023-07-24T06:41:39;100207.28;;;12.91;100.00
41862;BME280;27537;57.134;-2.136;2023-07-24T06:44:05;100192.97;;;12.97;100.00
41862;BME280;27537;57.134;-2.136;2023-07-24T06:46:32;100202.53;;;13.14;100.00
41862;BME280;27537;57.134;-2.136;2023-07-24T06:48:59;100207.38;;;13.06;100.00
41862;BME280;27537;57.134;-2.136;2023-07-24T06:51:25;100207.78;;;13.14;100.00
41862;BME280;27537;57.134;-2.136;2023-07-24T06:53:52;100197.97;;;13.02;100.00
41862;BME280;27537;57.134;-2.136;2023-07-24T06:56:19;100197.44;;;13.11;100.00
41862;BME280;27537;57.134;-2.136;2023-07-24T06:58:45;100213.03;;;13.46;100.00
41862;BME280;27537;57.134;-2.136;2023-07-24T07:01:12;100200.22;;;13.24;100.00
41862;BME280;27537;57.134;-2.136;2023-07-24T07:03:39;100196.75;;;13.23;100.00
41862;BME280;27537;57.134;-2.136;2023-07-24T07:06:05;100181.06;;;13.22;100.00
41862;BME280;27537;57.134;-2.136;2023-07-24T07:08:33;100192.41;;;13.68;100.00
41862;BME280;27537;57.134;-2.136;2023-07-24T07:11:00;100186.22;;;14.56;100.00
41862;BME280;27537;57.134;-2.136;2023-07-24T07:13:27;100195.28;;;14.66;100.00
41862;BME280;27537;57.134;-2.136;2023-07-24T07:15:54;100205.34;;;15.01;100.00
41862;BME280;27537;57.134;-2.136;2023-07-24T07:18:21;100208.06;;;15.14;100.00
41862;BME280;27537;57.134;-2.136;2023-07-24T07:20:48;100197.19;;;15.59;100.00
41862;BME280;27537;57.134;-2.136;2023-07-24T07:23:15;100198.19;;;16.22;100.00
41862;BME280;27537;57.134;-2.136;2023-07-24T07:25:43;100201.59;;;16.24;100.00
41862;BME280;27537;57.134;-2.136;2023-07-24T07:28:15;100201.75;;;16.46;100.00
41862;BME280;27537;57.134;-2.136;2023-07-24T07:30:43;100215.06;;;16.58;100.00
41862;BME280;27537;57.134;-2.136;2023-07-24T07:33:11;100201.97;;;16.43;100.00
41862;BME280;27537;57.134;-2.136;2023-07-24T07:35:38;100203.22;;;16.38;100.00
41862;BME280;27537;57.134;-2.136;2023-07-24T07:38:05;100200.94;;;16.07;100.00
41862;BME280;27537;57.134;-2.136;2023-07-24T07:40:31;100209.91;;;16.30;100.00
41862;BME280;27537;57.134;-2.136;2023-07-24T07:43:00;100202.53;;;16.73;100.00
41862;BME280;27537;57.134;-2.136;2023-07-24T07:45:26;100208.50;;;16.63;100.00
41862;BME280;27537;57.134;-2.136;2023-07-24T07:47:53;100197.41;;;16.95;100.00
41862;BME280;27537;57.134;-2.136;2023-07-24T07:50:20;100206.72;;;17.25;100.00
41862;BME280;27537;57.134;-2.136;2023-07-24T07:52:50;100206.69;;;17.01;100.00
41862;BME280;27537;57.134;-2.136;2023-07-24T07:55:18;100217.91;;;16.55;100.00
41862;BME280;27537;57.134;-2.136;2023-07-24T07:57:45;100216.25;;;16.28;100.00
41862;BME280;27537;57.134;-2.136;2023-07-24T08:00:12;100218.47;;;16.34;100.00
41862;BME280;27537;57.134;-2.136;2023-07-24T08:02:39;100209.28;;;16.40;100.00
41862;BME280;27537;57.134;-2.136;2023-07-24T08:05:10;100223.81;;;16.58;100.00
41862;BME280;27537;57.134;-2.136;2023-07-24T08:07:46;100205.88;;;16.38;100.00
41862;BME280;27537;57.134;-2.136;2023-07-24T08:10:13;100224.38;;;15.86;100.00
41862;BME280;27537;57.134;-2.136;2023-07-24T08:12:43;100219.38;;;15.29;100.00
41862;BME280;27537;57.134;-2.136;2023-07-24T08:15:10;100235.97;;;15.44;100.00
41862;BME280;27537;57.134;-2.136;2023-07-24T08:17:37;100221.97;;;15.16;100.00
41862;BME280;27537;57.134;-2.136;2023-07-24T08:20:04;100227.63;;;15.10;100.00
41862;BME280;27537;57.134;-2.136;2023-07-24T08:22:31;100222.44;;;15.08;100.00
41862;BME280;27537;57.134;-2.136;2023-07-24T08:24:58;100218.38;;;14.90;100.00
41862;BME280;27537;57.134;-2.136;2023-07-24T08:27:25;100222.75;;;15.04;100.00
41862;BME280;27537;57.134;-2.136;2023-07-24T08:29:51;100233.66;;;15.12;100.00
41862;BME280;27537;57.134;-2.136;2023-07-24T08:32:19;100211.81;;;14.54;100.00
41862;BME280;27537;57.134;-2.136;2023-07-24T08:34:47;100230.72;;;14.89;100.00
41862;BME280;27537;57.134;-2.136;2023-07-24T08:37:13;100228.56;;;14.38;100.00
41862;BME280;27537;57.134;-2.136;2023-07-24T08:39:40;100228.66;;;14.51;100.00
41862;BME280;27537;57.134;-2.136;2023-07-24T08:42:11;100225.19;;;14.36;100.00
41862;BME280;27537;57.134;-2.136;2023-07-24T08:44:38;100228.00;;;14.33;100.00
41862;BME280;27537;57.134;-2.136;2023-07-24T08:47:10;100226.97;;;14.21;100.00
41862;BME280;27537;57.134;-2.136;2023-07-24T08:49:42;100226.50;;;14.43;100.00
41862;BME280;27537;57.134;-2.136;2023-07-24T08:52:10;100226.28;;;14.90;100.00
41862;BME280;27537;57.134;-2.136;2023-07-24T08:55:01;100227.25;;;14.31;100.00
41862;BME280;27537;57.134;-2.136;2023-07-24T08:57:29;100220.66;;;14.53;100.00
41862;BME280;27537;57.134;-2.136;2023-07-24T08:59:56;100216.16;;;14.69;100.00
41862;BME280;27537;57.134;-2.136;2023-07-24T09:02:24;100205.31;;;14.74;100.00
41862;BME280;27537;57.134;-2.136;2023-07-24T09:04:51;100199.84;;;14.91;100.00
41862;BME280;27537;57.134;-2.136;2023-07-24T09:07:17;100199.00;;;14.76;100.00
41862;BME280;27537;57.134;-2.136;2023-07-24T09:09:47;100204.38;;;14.75;100.00
41862;BME280;27537;57.134;-2.136;2023-07-24T09:12:16;100199.19;;;14.88;100.00
41862;BME280;27537;57.134;-2.136;2023-07-24T09:14:43;100197.09;;;14.93;100.00
41862;BME280;27537;57.134;-2.136;2023-07-24T09:17:11;100203.25;;;15.33;100.00
41862;BME280;27537;57.134;-2.136;2023-07-24T09:19:38;100188.13;;;15.23;100.00
41862;BME280;27537;57.134;-2.136;2023-07-24T09:22:13;100197.94;;;15.61;100.00
41862;BME280;27537;57.134;-2.136;2023-07-24T09:24:55;100201.06;;;15.13;100.00
41862;BME280;27537;57.134;-2.136;2023-07-24T09:27:26;100196.38;;;15.31;100.00
41862;BME280;27537;57.134;-2.136;2023-07-24T09:29:55;100190.81;;;15.88;100.00
41862;BME280;27537;57.134;-2.136;2023-07-24T09:32:27;100202.75;;;16.07;100.00
41862;BME280;27537;57.134;-2.136;2023-07-24T09:34:54;100196.41;;;15.84;100.00
41862;BME280;27537;57.134;-2.136;2023-07-24T09:37:30;100205.13;;;15.71;100.00
41862;BME280;27537;57.134;-2.136;2023-07-24T09:40:04;100188.13;;;15.63;100.00
41862;BME280;27537;57.134;-2.136;2023-07-24T09:42:32;100192.09;;;15.43;100.00
41862;BME280;27537;57.134;-2.136;2023-07-24T09:45:04;100195.25;;;16.01;100.00
41862;BME280;27537;57.134;-2.136;2023-07-24T09:47:32;100198.31;;;15.82;100.00
41862;BME280;27537;57.134;-2.136;2023-07-24T09:50:19;100187.94;;;15.79;100.00
41862;BME280;27537;57.134;-2.136;2023-07-24T09:52:47;100198.22;;;15.43;100.00
41862;BME280;27537;57.134;-2.136;2023-07-24T09:55:28;100193.66;;;15.98;100.00
41862;BME280;27537;57.134;-2.136;2023-07-24T09:57:58;100191.41;;;16.30;100.00
41862;BME280;27537;57.134;-2.136;2023-07-24T10:00:27;100190.28;;;16.09;100.00
41862;BME280;27537;57.134;-2.136;2023-07-24T10:02:55;100200.22;;;15.92;100.00
41862;BME280;27537;57.134;-2.136;2023-07-24T10:05:22;100215.75;;;16.10;100.00
41862;BME280;27537;57.134;-2.136;2023-07-24T10:07:50;100208.50;;;15.73;100.00
41862;BME280;27537;57.134;-2.136;2023-07-24T10:10:18;100200.47;;;15.62;100.00
41862;BME280;27537;57.134;-2.136;2023-07-24T10:12:44;100196.31;;;15.85;100.00
41862;BME280;27537;57.134;-2.136;2023-07-24T10:15:11;100205.19;;;15.44;100.00
41862;BME280;27537;57.134;-2.136;2023-07-24T10:17:40;100203.91;;;15.10;100.00
41862;BME280;27537;57.134;-2.136;2023-07-24T10:20:10;100211.59;;;15.40;100.00
41862;BME280;27537;57.134;-2.136;2023-07-24T10:22:41;100212.19;;;15.31;100.00
41862;BME280;27537;57.134;-2.136;2023-07-24T10:25:09;100211.38;;;15.30;100.00
41862;BME280;27537;57.134;-2.136;2023-07-24T10:27:42;100198.50;;;15.38;100.00
41862;BME280;27537;57.134;-2.136;2023-07-24T10:30:11;100208.38;;;15.49;100.00
41862;BME280;27537;57.134;-2.136;2023-07-24T10:36:06;100207.25;;;16.43;100.00
41862;BME280;27537;57.134;-2.136;2023-07-24T10:38:37;100204.09;;;16.25;100.00
41862;BME280;27537;57.134;-2.136;2023-07-24T10:41:08;100199.34;;;16.18;100.00
41862;BME280;27537;57.134;-2.136;2023-07-24T10:43:51;100212.16;;;16.24;100.00
41862;BME280;27537;57.134;-2.136;2023-07-24T10:46:18;100208.44;;;15.88;100.00
41862;BME280;27537;57.134;-2.136;2023-07-24T10:48:50;100194.50;;;16.11;100.00
41862;BME280;27537;57.134;-2.136;2023-07-24T10:51:18;100197.56;;;16.31;100.00
41862;BME280;27537;57.134;-2.136;2023-07-24T10:53:46;100206.88;;;16.74;100.00
41862;BME280;27537;57.134;-2.136;2023-07-24T10:56:15;100193.00;;;16.33;100.00
41862;BME280;27537;57.134;-2.136;2023-07-24T10:58:43;100202.94;;;16.29;100.00
41862;BME280;27537;57.134;-2.136;2023-07-24T11:01:10;100200.09;;;16.07;100.00
41862;BME280;27537;57.134;-2.136;2023-07-24T11:03:41;100202.13;;;16.29;100.00
41862;BME280;27537;57.134;-2.136;2023-07-24T11:06:16;100202.56;;;15.57;100.00
41862;BME280;27537;57.134;-2.136;2023-07-24T11:09:03;100210.66;;;15.94;100.00
41862;BME280;27537;57.134;-2.136;2023-07-24T11:11:35;100214.16;;;15.82;100.00
41862;BME280;27537;57.134;-2.136;2023-07-24T11:14:03;100211.84;;;15.50;100.00
41862;BME280;27537;57.134;-2.136;2023-07-24T11:16:30;100215.75;;;15.44;100.00
41862;BME280;27537;57.134;-2.136;2023-07-24T11:18:59;100195.19;;;15.22;100.00
41862;BME280;27537;57.134;-2.136;2023-07-24T11:21:26;100222.41;;;15.50;100.00
41862;BME280;27537;57.134;-2.136;2023-07-24T11:23:54;100206.84;;;15.98;100.00
41862;BME280;27537;57.134;-2.136;2023-07-24T11:26:23;100215.09;;;15.93;100.00
41862;BME280;27537;57.134;-2.136;2023-07-24T11:28:51;100210.59;;;15.68;100.00
41862;BME280;27537;57.134;-2.136;2023-07-24T11:31:18;100205.19;;;15.44;100.00
41862;BME280;27537;57.134;-2.136;2023-07-24T11:33:48;100217.03;;;15.64;100.00
41862;BME280;27537;57.134;-2.136;2023-07-24T11:36:15;100215.03;;;15.55;100.00
41862;BME280;27537;57.134;-2.136;2023-07-24T11:38:45;100199.84;;;15.31;100.00
41862;BME280;27537;57.134;-2.136;2023-07-24T11:41:12;100231.94;;;14.84;100.00
41862;BME280;27537;57.134;-2.136;2023-07-24T11:43:46;100227.34;;;15.14;100.00
41862;BME280;27537;57.134;-2.136;2023-07-24T11:46:28;100230.81;;;15.15;100.00
41862;BME280;27537;57.134;-2.136;2023-07-24T11:48:56;100239.63;;;15.28;100.00
41862;BME280;27537;57.134;-2.136;2023-07-24T11:51:25;100244.81;;;15.70;100.00
41862;BME280;27537;57.134;-2.136;2023-07-24T11:54:05;100262.66;;;14.70;100.00
41862;BME280;27537;57.134;-2.136;2023-07-24T11:56:32;100231.88;;;14.71;100.00
41862;BME280;27537;57.134;-2.136;2023-07-24T11:59:12;100215.19;;;15.39;100.00
41862;BME280;27537;57.134;-2.136;2023-07-24T12:01:39;100233.34;;;15.44;100.00
41862;BME280;27537;57.134;-2.136;2023-07-24T12:04:06;100238.34;;;15.61;100.00
41862;BME280;27537;57.134;-2.136;2023-07-24T12:06:33;100219.72;;;15.77;100.00
41862;BME280;27537;57.134;-2.136;2023-07-24T12:09:03;100236.78;;;16.11;100.00
41862;BME280;27537;57.134;-2.136;2023-07-24T12:11:39;100219.94;;;16.25;100.00
41862;BME280;27537;57.134;-2.136;2023-07-24T12:14:12;100215.31;;;16.16;100.00
41862;BME280;27537;57.134;-2.136;2023-07-24T12:16:39;100209.63;;;16.22;100.00
41862;BME280;27537;57.134;-2.136;2023-07-24T12:19:05;100214.88;;;16.35;100.00
41862;BME280;27537;57.134;-2.136;2023-07-24T12:21:32;100216.06;;;16.81;100.00
41862;BME280;27537;57.134;-2.136;2023-07-24T12:23:59;100220.38;;;16.82;100.00
41862;BME280;27537;57.134;-2.136;2023-07-24T12:26:26;100209.16;;;16.41;100.00
41862;BME280;27537;57.134;-2.136;2023-07-24T12:28:54;100218.41;;;16.73;100.00
41862;BME280;27537;57.134;-2.136;2023-07-24T12:31:21;100215.94;;;16.82;100.00
41862;BME280;27537;57.134;-2.136;2023-07-24T12:33:48;100209.28;;;16.27;100.00
41862;BME280;27537;57.134;-2.136;2023-07-24T12:36:15;100212.66;;;16.16;100.00
41862;BME280;27537;57.134;-2.136;2023-07-24T12:38:43;100207.06;;;15.82;100.00
41862;BME280;27537;57.134;-2.136;2023-07-24T12:41:09;100205.41;;;15.67;100.00